sensor_id;sensor_type;location;lat;lon;timestamp;temperature;humidity
34776;DHT22;20989;52.566;13.346;2022-10-16T00:00:27;20.60;55.10
34776;DHT22;20989;52.566;13.346;2022-10-16T00:03:28;20.60;55.10
34776;DHT22;20989;52.566;13.346;2022-10-16T00:06:29;20.60;55.10
34776;DHT22;20989;52.566;13.346;2022-10-16T00:09:30;20.70;55.20
34776;DHT22;20989;52.566;13.346;2022-10-16T00:12:31;20.60;55.10
34776;DHT22;20989;52.566;13.346;2022-10-16T00:15:38;20.70;55.20
34776;DHT22;20989;52.566;13.346;2022-10-16T00:18:40;20.60;55.10
34776;DHT22;20989;52.566;13.346;2022-10-16T00:21:41;20.60;55.00
34776;DHT22;20989;52.566;13.346;2022-10-16T00:24:42;20.60;55.00
34776;DHT22;20989;52.566;13.346;2022-10-16T00:27:43;20.60;55.00
34776;DHT22;20989;52.566;13.346;2022-10-16T00:30:43;20.60;55.00
34776;DHT22;20989;52.566;13.346;2022-10-16T00:33:44;20.60;55.10
34776;DHT22;20989;52.566;13.346;2022-10-16T00:36:45;20.60;55.10
34776;DHT22;20989;52.566;13.346;2022-10-16T00:39:45;20.60;55.00
34776;DHT22;20989;52.566;13.346;2022-10-16T00:42:46;20.60;55.00
34776;DHT22;20989;52.566;13.346;2022-10-16T00:45:47;20.70;55.00
34776;DHT22;20989;52.566;13.346;2022-10-16T00:52:10;20.60;55.00
34776;DHT22;20989;52.566;13.346;2022-10-16T00:55:12;20.60;55.00
34776;DHT22;20989;52.566;13.346;2022-10-16T00:58:13;20.60;55.10
34776;DHT22;20989;52.566;13.346;2022-10-16T01:01:14;20.60;55.00
34776;DHT22;20989;52.566;13.346;2022-10-16T01:04:14;20.60;55.10
34776;DHT22;20989;52.566;13.346;2022-10-16T01:11:20;20.60;55.00
34776;DHT22;20989;52.566;13.346;2022-10-16T01:14:47;20.60;55.10
34776;DHT22;20989;52.566;13.346;2022-10-16T01:18:39;20.60;55.00
34776;DHT22;20989;52.566;13.346;2022-10-16T01:21:36;20.60;55.00
34776;DHT22;20989;52.566;13.346;2022-10-16T01:24:43;20.60;55.10
34776;DHT22;20989;52.566;13.346;2022-10-16T01:27:45;20.60;55.10
34776;DHT22;20989;52.566;13.346;2022-10-16T01:30:48;20.60;55.10
34776;DHT22;20989;52.566;13.346;2022-10-16T01:34:04;20.60;55.00
34776;DHT22;20989;52.566;13.346;2022-10-16T01:37:11;20.60;55.00
34776;DHT22;20989;52.566;13.346;2022-10-16T01:40:16;20.60;55.00
34776;DHT22;20989;52.566;13.346;2022-10-16T01:43:37;20.60;54.90
34776;DHT22;20989;52.566;13.346;2022-10-16T01:46:43;20.60;55.00
34776;DHT22;20989;52.566;13.346;2022-10-16T01:49:46;20.60;55.00
34776;DHT22;20989;52.566;13.346;2022-10-16T01:52:49;20.60;55.00
34776;DHT22;20989;52.566;13.346;2022-10-16T01:55:52;20.60;55.00
34776;DHT22;20989;52.566;13.346;2022-10-16T01:59:04;20.60;54.90
34776;DHT22;20989;52.566;13.346;2022-10-16T02:02:08;20.60;55.00
34776;DHT22;20989;52.566;13.346;2022-10-16T02:08:22;20.60;55.00
34776;DHT22;20989;52.566;13.346;2022-10-16T02:11:24;20.60;54.90
34776;DHT22;20989;52.566;13.346;2022-10-16T02:14:26;20.60;55.00
34776;DHT22;20989;52.566;13.346;2022-10-16T02:17:29;20.60;54.90
34776;DHT22;20989;52.566;13.346;2022-10-16T02:20:34;20.70;55.00
34776;DHT22;20989;52.566;13.346;2022-10-16T02:27:00;20.60;55.00
34776;DHT22;20989;52.566;13.346;2022-10-16T02:30:27;20.60;55.00
34776;DHT22;20989;52.566;13.346;2022-10-16T02:33:30;20.60;55.00
34776;DHT22;20989;52.566;13.346;2022-10-16T02:36:32;20.60;55.00
34776;DHT22;20989;52.566;13.346;2022-10-16T02:39:34;20.70;55.00
34776;DHT22;20989;52.566;13.346;2022-10-16T02:42:37;20.60;55.00
34776;DHT22;20989;52.566;13.346;2022-10-16T02:45:38;20.60;55.00
34776;DHT22;20989;52.566;13.346;2022-10-16T02:48:39;20.60;55.00
34776;DHT22;20989;52.566;13.346;2022-10-16T02:51:40;20.60;55.00
34776;DHT22;20989;52.566;13.346;2022-10-16T02:54:40;20.60;55.00
34776;DHT22;20989;52.566;13.346;2022-10-16T02:57:41;20.60;55.00
34776;DHT22;20989;52.566;13.346;2022-10-16T03:00:42;20.60;55.00
34776;DHT22;20989;52.566;13.346;2022-10-16T03:03:43;20.60;54.90
34776;DHT22;20989;52.566;13.346;2022-10-16T03:06:44;20.60;55.00
34776;DHT22;20989;52.566;13.346;2022-10-16T03:09:44;20.60;55.00
34776;DHT22;20989;52.566;13.346;2022-10-16T03:12:45;20.60;55.00
34776;DHT22;20989;52.566;13.346;2022-10-16T03:15:46;20.60;55.00
34776;DHT22;20989;52.566;13.346;2022-10-16T03:18:50;20.60;55.00
34776;DHT22;20989;52.566;13.346;2022-10-16T03:21:51;20.60;55.10
34776;DHT22;20989;52.566;13.346;2022-10-16T03:24:51;20.60;55.00
34776;DHT22;20989;52.566;13.346;2022-10-16T03:27:52;20.60;55.00
34776;DHT22;20989;52.566;13.346;2022-10-16T03:30:53;20.60;55.00
34776;DHT22;20989;52.566;13.346;2022-10-16T03:33:53;20.60;55.00
34776;DHT22;20989;52.566;13.346;2022-10-16T03:36:54;20.60;55.00
34776;DHT22;20989;52.566;13.346;2022-10-16T03:39:55;20.60;55.00
34776;DHT22;20989;52.566;13.346;2022-10-16T03:42:55;20.60;54.90
34776;DHT22;20989;52.566;13.346;2022-10-16T03:45:57;20.60;55.00
34776;DHT22;20989;52.566;13.346;2022-10-16T03:48:58;20.60;55.00
34776;DHT22;20989;52.566;13.346;2022-10-16T03:51:58;20.60;55.00
34776;DHT22;20989;52.566;13.346;2022-10-16T03:54:59;20.60;54.90
34776;DHT22;20989;52.566;13.346;2022-10-16T03:58:00;20.60;55.00
34776;DHT22;20989;52.566;13.346;2022-10-16T04:01:01;20.60;55.00
34776;DHT22;20989;52.566;13.346;2022-10-16T04:04:01;20.60;54.90
34776;DHT22;20989;52.566;13.346;2022-10-16T04:07:02;20.60;55.00
34776;DHT22;20989;52.566;13.346;2022-10-16T04:10:03;20.60;54.90
34776;DHT22;20989;52.566;13.346;2022-10-16T04:13:04;20.60;55.00
34776;DHT22;20989;52.566;13.346;2022-10-16T04:16:05;20.60;55.00
34776;DHT22;20989;52.566;13.346;2022-10-16T04:19:06;20.60;55.00
34776;DHT22;20989;52.566;13.346;2022-10-16T04:22:06;20.60;55.00
34776;DHT22;20989;52.566;13.346;2022-10-16T04:25:07;20.60;55.00
34776;DHT22;20989;52.566;13.346;2022-10-16T04:28:08;20.60;55.00
34776;DHT22;20989;52.566;13.346;2022-10-16T04:31:09;20.60;55.00
34776;DHT22;20989;52.566;13.346;2022-10-16T04:34:09;20.60;55.00
34776;DHT22;20989;52.566;13.346;2022-10-16T04:37:10;20.60;55.00
34776;DHT22;20989;52.566;13.346;2022-10-16T04:40:11;20.60;55.00
34776;DHT22;20989;52.566;13.346;2022-10-16T04:43:11;20.60;55.00
34776;DHT22;20989;52.566;13.346;2022-10-16T04:46:12;20.60;54.90
34776;DHT22;20989;52.566;13.346;2022-10-16T04:49:13;20.50;54.90
34776;DHT22;20989;52.566;13.346;2022-10-16T04:52:13;20.60;54.90
34776;DHT22;20989;52.566;13.346;2022-10-16T04:55:14;20.50;55.00
34776;DHT22;20989;52.566;13.346;2022-10-16T04:58:15;20.60;55.00
34776;DHT22;20989;52.566;13.346;2022-10-16T05:01:15;20.60;55.00
34776;DHT22;20989;52.566;13.346;2022-10-16T05:04:16;20.60;54.90
34776;DHT22;20989;52.566;13.346;2022-10-16T05:07:17;20.60;55.00
34776;DHT22;20989;52.566;13.346;2022-10-16T05:10:18;20.60;55.00
34776;DHT22;20989;52.566;13.346;2022-10-16T05:13:19;20.60;54.90
34776;DHT22;20989;52.566;13.346;2022-10-16T05:16:20;20.60;55.00
34776;DHT22;20989;52.566;13.346;2022-10-16T05:19:21;20.60;55.00
34776;DHT22;20989;52.566;13.346;2022-10-16T05:22:21;20.60;54.90
34776;DHT22;20989;52.566;13.346;2022-10-16T05:25:22;20.50;54.90
34776;DHT22;20989;52.566;13.346;2022-10-16T05:28:26;20.60;54.90
34776;DHT22;20989;52.566;13.346;2022-10-16T05:31:27;20.60;55.00
34776;DHT22;20989;52.566;13.346;2022-10-16T05:34:28;20.60;55.00
34776;DHT22;20989;52.566;13.346;2022-10-16T05:37:28;20.60;54.90
34776;DHT22;20989;52.566;13.346;2022-10-16T05:40:29;20.60;55.00
34776;DHT22;20989;52.566;13.346;2022-10-16T05:43:30;20.60;55.00
34776;DHT22;20989;52.566;13.346;2022-10-16T05:46:32;20.60;54.90
34776;DHT22;20989;52.566;13.346;2022-10-16T05:49:33;20.50;54.90
34776;DHT22;20989;52.566;13.346;2022-10-16T05:52:34;20.60;55.00
34776;DHT22;20989;52.566;13.346;2022-10-16T05:55:35;20.60;55.00
34776;DHT22;20989;52.566;13.346;2022-10-16T05:58:37;20.60;55.00
34776;DHT22;20989;52.566;13.346;2022-10-16T06:01:38;20.60;55.00
34776;DHT22;20989;52.566;13.346;2022-10-16T06:04:39;20.60;55.00
34776;DHT22;20989;52.566;13.346;2022-10-16T06:07:40;20.60;54.90
34776;DHT22;20989;52.566;13.346;2022-10-16T06:10:41;20.50;55.40
34776;DHT22;20989;52.566;13.346;2022-10-16T06:13:42;20.50;55.00
34776;DHT22;20989;52.566;13.346;2022-10-16T06:16:43;20.50;54.90
34776;DHT22;20989;52.566;13.346;2022-10-16T06:19:43;20.60;55.00
34776;DHT22;20989;52.566;13.346;2022-10-16T06:22:44;20.60;55.00
34776;DHT22;20989;52.566;13.346;2022-10-16T06:25:45;20.50;55.40
34776;DHT22;20989;52.566;13.346;2022-10-16T06:28:45;20.60;55.00
34776;DHT22;20989;52.566;13.346;2022-10-16T06:31:46;20.50;54.90
34776;DHT22;20989;52.566;13.346;2022-10-16T06:34:47;20.60;55.00
34776;DHT22;20989;52.566;13.346;2022-10-16T06:37:48;20.60;55.00
34776;DHT22;20989;52.566;13.346;2022-10-16T06:40:48;20.50;55.00
34776;DHT22;20989;52.566;13.346;2022-10-16T06:43:49;20.50;54.90
34776;DHT22;20989;52.566;13.346;2022-10-16T06:46:50;20.60;55.00
34776;DHT22;20989;52.566;13.346;2022-10-16T06:49:51;20.60;55.00
34776;DHT22;20989;52.566;13.346;2022-10-16T06:52:52;20.50;55.00
34776;DHT22;20989;52.566;13.346;2022-10-16T06:55:53;20.60;55.00
34776;DHT22;20989;52.566;13.346;2022-10-16T06:58:54;20.50;55.00
34776;DHT22;20989;52.566;13.346;2022-10-16T07:01:54;20.50;55.00
34776;DHT22;20989;52.566;13.346;2022-10-16T07:04:55;20.60;55.00
34776;DHT22;20989;52.566;13.346;2022-10-16T07:07:57;20.60;55.00
34776;DHT22;20989;52.566;13.346;2022-10-16T07:11:02;20.60;55.00
34776;DHT22;20989;52.566;13.346;2022-10-16T07:14:03;20.50;55.00
34776;DHT22;20989;52.566;13.346;2022-10-16T07:17:04;20.50;54.90
34776;DHT22;20989;52.566;13.346;2022-10-16T07:20:05;20.50;55.00
34776;DHT22;20989;52.566;13.346;2022-10-16T07:23:05;20.60;54.90
34776;DHT22;20989;52.566;13.346;2022-10-16T07:26:07;20.50;55.00
34776;DHT22;20989;52.566;13.346;2022-10-16T07:29:17;20.60;55.00
34776;DHT22;20989;52.566;13.346;2022-10-16T07:32:18;20.60;54.90
34776;DHT22;20989;52.566;13.346;2022-10-16T07:35:18;20.50;54.90
34776;DHT22;20989;52.566;13.346;2022-10-16T07:38:20;20.50;55.00
34776;DHT22;20989;52.566;13.346;2022-10-16T07:41:21;20.60;55.00
34776;DHT22;20989;52.566;13.346;2022-10-16T07:44:22;20.50;55.00
34776;DHT22;20989;52.566;13.346;2022-10-16T07:47:22;20.50;54.90
34776;DHT22;20989;52.566;13.346;2022-10-16T07:50:23;20.60;55.00
34776;DHT22;20989;52.566;13.346;2022-10-16T07:53:24;20.50;54.90
34776;DHT22;20989;52.566;13.346;2022-10-16T07:56:24;20.60;55.00
34776;DHT22;20989;52.566;13.346;2022-10-16T07:59:25;20.60;55.00
34776;DHT22;20989;52.566;13.346;2022-10-16T08:02:26;20.60;55.00
34776;DHT22;20989;52.566;13.346;2022-10-16T08:05:28;20.50;55.00
34776;DHT22;20989;52.566;13.346;2022-10-16T08:08:29;20.60;55.10
34776;DHT22;20989;52.566;13.346;2022-10-16T08:11:30;20.60;55.00
34776;DHT22;20989;52.566;13.346;2022-10-16T08:14:31;20.60;55.00
34776;DHT22;20989;52.566;13.346;2022-10-16T08:17:31;20.60;55.00
34776;DHT22;20989;52.566;13.346;2022-10-16T08:20:33;20.50;55.10
34776;DHT22;20989;52.566;13.346;2022-10-16T08:23:34;20.50;55.00
34776;DHT22;20989;52.566;13.346;2022-10-16T08:26:35;20.60;55.00
34776;DHT22;20989;52.566;13.346;2022-10-16T08:29:35;20.60;55.10
34776;DHT22;20989;52.566;13.346;2022-10-16T08:32:36;20.60;55.00
34776;DHT22;20989;52.566;13.346;2022-10-16T08:35:37;20.60;55.10
34776;DHT22;20989;52.566;13.346;2022-10-16T08:38:38;20.60;55.00
34776;DHT22;20989;52.566;13.346;2022-10-16T08:45:39;20.60;55.60
34776;DHT22;20989;52.566;13.346;2022-10-16T08:48:58;20.50;55.00
34776;DHT22;20989;52.566;13.346;2022-10-16T08:51:59;20.60;55.00
34776;DHT22;20989;52.566;13.346;2022-10-16T08:55:01;20.60;55.70
34776;DHT22;20989;52.566;13.346;2022-10-16T08:58:05;20.80;55.00
34776;DHT22;20989;52.566;13.346;2022-10-16T09:01:13;20.80;54.50
34776;DHT22;20989;52.566;13.346;2022-10-16T09:08:54;20.90;54.50
34776;DHT22;20989;52.566;13.346;2022-10-16T09:11:44;20.90;54.50
34776;DHT22;20989;52.566;13.346;2022-10-16T09:15:27;20.90;54.50
34776;DHT22;20989;52.566;13.346;2022-10-16T09:18:46;20.90;54.50
34776;DHT22;20989;52.566;13.346;2022-10-16T09:21:48;21.10;54.70
34776;DHT22;20989;52.566;13.346;2022-10-16T09:24:50;21.10;54.70
34776;DHT22;20989;52.566;13.346;2022-10-16T09:27:53;21.20;54.60
34776;DHT22;20989;52.566;13.346;2022-10-16T09:30:54;21.20;54.80
34776;DHT22;20989;52.566;13.346;2022-10-16T09:33:58;21.20;54.80
34776;DHT22;20989;52.566;13.346;2022-10-16T09:37:04;21.20;54.80
34776;DHT22;20989;52.566;13.346;2022-10-16T09:40:06;21.30;54.50
34776;DHT22;20989;52.566;13.346;2022-10-16T09:46:35;21.30;54.80
34776;DHT22;20989;52.566;13.346;2022-10-16T09:49:37;21.40;55.70
34776;DHT22;20989;52.566;13.346;2022-10-16T09:52:38;21.40;54.30
34776;DHT22;20989;52.566;13.346;2022-10-16T09:55:49;21.30;54.50
34776;DHT22;20989;52.566;13.346;2022-10-16T09:58:52;21.20;54.80
34776;DHT22;20989;52.566;13.346;2022-10-16T10:01:54;21.20;55.00
34776;DHT22;20989;52.566;13.346;2022-10-16T10:04:55;21.20;54.90
34776;DHT22;20989;52.566;13.346;2022-10-16T10:08:02;21.20;55.20
34776;DHT22;20989;52.566;13.346;2022-10-16T10:11:06;21.30;55.10
34776;DHT22;20989;52.566;13.346;2022-10-16T10:14:34;21.30;54.80
34776;DHT22;20989;52.566;13.346;2022-10-16T10:17:53;21.40;54.70
34776;DHT22;20989;52.566;13.346;2022-10-16T10:21:02;21.30;54.60
34776;DHT22;20989;52.566;13.346;2022-10-16T10:24:03;21.40;54.70
34776;DHT22;20989;52.566;13.346;2022-10-16T10:27:16;21.40;54.80
34776;DHT22;20989;52.566;13.346;2022-10-16T10:34:24;21.40;54.80
34776;DHT22;20989;52.566;13.346;2022-10-16T10:37:59;21.50;54.50
34776;DHT22;20989;52.566;13.346;2022-10-16T10:44:37;21.60;54.10
34776;DHT22;20989;52.566;13.346;2022-10-16T10:51:05;21.50;54.60
34776;DHT22;20989;52.566;13.346;2022-10-16T10:54:45;21.50;54.50
34776;DHT22;20989;52.566;13.346;2022-10-16T10:58:15;21.40;54.50
34776;DHT22;20989;52.566;13.346;2022-10-16T11:05:13;21.40;54.60
34776;DHT22;20989;52.566;13.346;2022-10-16T11:08:35;21.50;54.70
34776;DHT22;20989;52.566;13.346;2022-10-16T11:18:05;21.40;54.60
34776;DHT22;20989;52.566;13.346;2022-10-16T11:21:10;21.50;54.70
34776;DHT22;20989;52.566;13.346;2022-10-16T11:31:08;21.50;54.50
34776;DHT22;20989;52.566;13.346;2022-10-16T11:34:24;21.50;54.60
34776;DHT22;20989;52.566;13.346;2022-10-16T11:37:33;21.50;54.60
34776;DHT22;20989;52.566;13.346;2022-10-16T11:40:37;21.50;54.50
34776;DHT22;20989;52.566;13.346;2022-10-16T11:43:44;21.50;54.60
34776;DHT22;20989;52.566;13.346;2022-10-16T11:47:40;21.60;54.40
34776;DHT22;20989;52.566;13.346;2022-10-16T11:50:25;21.70;54.30
34776;DHT22;20989;52.566;13.346;2022-10-16T11:53:45;21.70;54.10
34776;DHT22;20989;52.566;13.346;2022-10-16T11:56:50;21.60;54.30
34776;DHT22;20989;52.566;13.346;2022-10-16T12:00:04;21.70;54.50
34776;DHT22;20989;52.566;13.346;2022-10-16T12:07:01;21.70;54.30
34776;DHT22;20989;52.566;13.346;2022-10-16T12:10:10;21.70;54.20
34776;DHT22;20989;52.566;13.346;2022-10-16T12:13:34;21.70;54.40
34776;DHT22;20989;52.566;13.346;2022-10-16T12:16:37;21.70;54.20
34776;DHT22;20989;52.566;13.346;2022-10-16T12:19:38;21.70;54.20
34776;DHT22;20989;52.566;13.346;2022-10-16T12:25:55;21.60;54.30
34776;DHT22;20989;52.566;13.346;2022-10-16T12:29:32;21.60;54.40
34776;DHT22;20989;52.566;13.346;2022-10-16T12:32:36;21.60;54.30
34776;DHT22;20989;52.566;13.346;2022-10-16T12:35:43;21.60;54.30
34776;DHT22;20989;52.566;13.346;2022-10-16T12:38:48;21.70;54.30
34776;DHT22;20989;52.566;13.346;2022-10-16T12:42:01;21.70;54.50
34776;DHT22;20989;52.566;13.346;2022-10-16T12:45:29;21.80;54.10
34776;DHT22;20989;52.566;13.346;2022-10-16T12:48:31;21.80;54.00
34776;DHT22;20989;52.566;13.346;2022-10-16T12:54:37;21.80;54.20
34776;DHT22;20989;52.566;13.346;2022-10-16T13:05:01;21.80;54.10
34776;DHT22;20989;52.566;13.346;2022-10-16T13:18:40;22.00;53.60
34776;DHT22;20989;52.566;13.346;2022-10-16T13:21:55;21.90;53.70
34776;DHT22;20989;52.566;13.346;2022-10-16T13:28:10;21.90;54.00
34776;DHT22;20989;52.566;13.346;2022-10-16T13:31:21;21.90;53.90
34776;DHT22;20989;52.566;13.346;2022-10-16T13:34:23;21.90;53.90
34776;DHT22;20989;52.566;13.346;2022-10-16T13:37:24;21.90;53.80
34776;DHT22;20989;52.566;13.346;2022-10-16T13:40:25;21.90;53.90
34776;DHT22;20989;52.566;13.346;2022-10-16T13:43:38;21.90;53.80
34776;DHT22;20989;52.566;13.346;2022-10-16T13:46:39;21.90;53.80
34776;DHT22;20989;52.566;13.346;2022-10-16T13:49:40;22.00;53.60
34776;DHT22;20989;52.566;13.346;2022-10-16T13:52:41;22.00;53.50
34776;DHT22;20989;52.566;13.346;2022-10-16T13:55:41;22.00;53.40
34776;DHT22;20989;52.566;13.346;2022-10-16T13:58:42;22.10;53.30
34776;DHT22;20989;52.566;13.346;2022-10-16T14:01:44;22.10;53.20
34776;DHT22;20989;52.566;13.346;2022-10-16T14:04:45;22.10;53.40
34776;DHT22;20989;52.566;13.346;2022-10-16T14:07:49;22.20;53.50
34776;DHT22;20989;52.566;13.346;2022-10-16T14:10:57;22.10;53.00
34776;DHT22;20989;52.566;13.346;2022-10-16T14:13:58;22.20;53.00
34776;DHT22;20989;52.566;13.346;2022-10-16T14:16:59;22.30;53.10
34776;DHT22;20989;52.566;13.346;2022-10-16T14:20:03;22.30;52.90
34776;DHT22;20989;52.566;13.346;2022-10-16T14:26:26;22.40;52.80
34776;DHT22;20989;52.566;13.346;2022-10-16T14:29:28;22.30;52.80
34776;DHT22;20989;52.566;13.346;2022-10-16T14:32:31;22.40;52.70
34776;DHT22;20989;52.566;13.346;2022-10-16T14:35:34;22.40;52.70
34776;DHT22;20989;52.566;13.346;2022-10-16T14:38:40;22.40;52.70
34776;DHT22;20989;52.566;13.346;2022-10-16T14:41:45;22.40;52.70
34776;DHT22;20989;52.566;13.346;2022-10-16T14:44:46;22.30;53.00
34776;DHT22;20989;52.566;13.346;2022-10-16T14:47:50;22.20;53.20
34776;DHT22;20989;52.566;13.346;2022-10-16T14:50:52;22.20;53.30
34776;DHT22;20989;52.566;13.346;2022-10-16T14:53:53;22.20;53.40
34776;DHT22;20989;52.566;13.346;2022-10-16T14:56:56;22.20;53.30
34776;DHT22;20989;52.566;13.346;2022-10-16T14:59:58;22.20;53.40
34776;DHT22;20989;52.566;13.346;2022-10-16T15:02:58;22.30;53.30
34776;DHT22;20989;52.566;13.346;2022-10-16T15:05:59;22.40;52.70
34776;DHT22;20989;52.566;13.346;2022-10-16T15:08:59;22.50;52.60
34776;DHT22;20989;52.566;13.346;2022-10-16T15:12:00;22.40;52.70
34776;DHT22;20989;52.566;13.346;2022-10-16T15:15:05;22.40;52.90
34776;DHT22;20989;52.566;13.346;2022-10-16T15:18:15;22.40;52.90
34776;DHT22;20989;52.566;13.346;2022-10-16T15:21:25;22.50;52.80
34776;DHT22;20989;52.566;13.346;2022-10-16T15:24:26;22.50;52.70
34776;DHT22;20989;52.566;13.346;2022-10-16T15:27:27;22.50;52.60
34776;DHT22;20989;52.566;13.346;2022-10-16T15:30:28;22.50;52.80
34776;DHT22;20989;52.566;13.346;2022-10-16T15:33:29;22.50;52.90
34776;DHT22;20989;52.566;13.346;2022-10-16T15:36:35;22.50;52.90
34776;DHT22;20989;52.566;13.346;2022-10-16T15:39:37;22.60;53.00
34776;DHT22;20989;52.566;13.346;2022-10-16T15:42:37;22.50;52.90
34776;DHT22;20989;52.566;13.346;2022-10-16T15:45:38;22.50;53.00
34776;DHT22;20989;52.566;13.346;2022-10-16T15:48:39;22.50;53.00
34776;DHT22;20989;52.566;13.346;2022-10-16T15:51:41;22.60;53.00
34776;DHT22;20989;52.566;13.346;2022-10-16T15:54:43;22.60;52.90
34776;DHT22;20989;52.566;13.346;2022-10-16T15:57:44;22.60;52.90
34776;DHT22;20989;52.566;13.346;2022-10-16T16:00:45;22.60;52.90
34776;DHT22;20989;52.566;13.346;2022-10-16T16:03:45;22.60;52.90
34776;DHT22;20989;52.566;13.346;2022-10-16T16:06:46;22.60;53.40
34776;DHT22;20989;52.566;13.346;2022-10-16T16:09:46;22.60;52.90
34776;DHT22;20989;52.566;13.346;2022-10-16T16:12:48;22.60;53.00
34776;DHT22;20989;52.566;13.346;2022-10-16T16:15:53;22.60;52.90
34776;DHT22;20989;52.566;13.346;2022-10-16T16:18:54;22.60;52.90
34776;DHT22;20989;52.566;13.346;2022-10-16T16:21:55;22.60;53.10
34776;DHT22;20989;52.566;13.346;2022-10-16T16:24:56;22.70;53.00
34776;DHT22;20989;52.566;13.346;2022-10-16T16:27:57;22.70;52.90
34776;DHT22;20989;52.566;13.346;2022-10-16T16:30:57;22.70;53.10
34776;DHT22;20989;52.566;13.346;2022-10-16T16:33:58;22.70;52.80
34776;DHT22;20989;52.566;13.346;2022-10-16T16:36:59;22.50;53.00
34776;DHT22;20989;52.566;13.346;2022-10-16T16:39:59;22.50;53.20
34776;DHT22;20989;52.566;13.346;2022-10-16T16:43:00;22.50;53.20
34776;DHT22;20989;52.566;13.346;2022-10-16T16:46:01;22.40;53.20
34776;DHT22;20989;52.566;13.346;2022-10-16T16:49:03;22.40;53.30
34776;DHT22;20989;52.566;13.346;2022-10-16T16:52:03;22.50;53.10
34776;DHT22;20989;52.566;13.346;2022-10-16T16:55:04;22.70;52.80
34776;DHT22;20989;52.566;13.346;2022-10-16T16:58:05;22.80;52.80
34776;DHT22;20989;52.566;13.346;2022-10-16T17:01:10;22.80;52.60
34776;DHT22;20989;52.566;13.346;2022-10-16T17:04:11;22.70;52.70
34776;DHT22;20989;52.566;13.346;2022-10-16T17:07:13;22.70;52.80
34776;DHT22;20989;52.566;13.346;2022-10-16T17:10:14;22.70;53.10
34776;DHT22;20989;52.566;13.346;2022-10-16T17:13:15;22.70;52.80
34776;DHT22;20989;52.566;13.346;2022-10-16T17:16:16;22.80;53.00
34776;DHT22;20989;52.566;13.346;2022-10-16T17:19:18;22.70;53.20
34776;DHT22;20989;52.566;13.346;2022-10-16T17:22:19;22.60;53.30
34776;DHT22;20989;52.566;13.346;2022-10-16T17:25:20;22.70;53.60
34776;DHT22;20989;52.566;13.346;2022-10-16T17:28:21;22.60;53.40
34776;DHT22;20989;52.566;13.346;2022-10-16T17:31:27;22.50;53.60
34776;DHT22;20989;52.566;13.346;2022-10-16T17:34:28;22.50;53.50
34776;DHT22;20989;52.566;13.346;2022-10-16T17:37:29;22.50;53.50
34776;DHT22;20989;52.566;13.346;2022-10-16T17:40:29;22.50;53.50
34776;DHT22;20989;52.566;13.346;2022-10-16T17:43:30;22.50;53.70
34776;DHT22;20989;52.566;13.346;2022-10-16T17:46:31;22.50;54.10
34776;DHT22;20989;52.566;13.346;2022-10-16T17:49:32;22.50;53.50
34776;DHT22;20989;52.566;13.346;2022-10-16T17:52:33;22.50;53.60
34776;DHT22;20989;52.566;13.346;2022-10-16T17:55:40;22.60;53.70
34776;DHT22;20989;52.566;13.346;2022-10-16T17:58:42;22.60;53.50
34776;DHT22;20989;52.566;13.346;2022-10-16T18:01:43;22.70;53.60
34776;DHT22;20989;52.566;13.346;2022-10-16T18:04:45;22.70;53.50
34776;DHT22;20989;52.566;13.346;2022-10-16T18:07:46;22.70;53.50
34776;DHT22;20989;52.566;13.346;2022-10-16T18:10:48;22.70;53.50
34776;DHT22;20989;52.566;13.346;2022-10-16T18:13:57;22.60;53.60
34776;DHT22;20989;52.566;13.346;2022-10-16T18:16:58;22.40;53.20
34776;DHT22;20989;52.566;13.346;2022-10-16T18:19:59;22.30;53.90
34776;DHT22;20989;52.566;13.346;2022-10-16T18:23:00;22.20;54.10
34776;DHT22;20989;52.566;13.346;2022-10-16T18:26:02;22.10;54.20
34776;DHT22;20989;52.566;13.346;2022-10-16T18:29:03;22.00;54.20
34776;DHT22;20989;52.566;13.346;2022-10-16T18:32:04;22.00;54.30
34776;DHT22;20989;52.566;13.346;2022-10-16T18:35:05;22.00;54.30
34776;DHT22;20989;52.566;13.346;2022-10-16T18:38:06;22.00;54.40
34776;DHT22;20989;52.566;13.346;2022-10-16T18:41:07;21.90;54.40
34776;DHT22;20989;52.566;13.346;2022-10-16T18:44:08;21.90;54.50
34776;DHT22;20989;52.566;13.346;2022-10-16T18:47:12;21.90;54.50
34776;DHT22;20989;52.566;13.346;2022-10-16T18:50:13;21.90;54.50
34776;DHT22;20989;52.566;13.346;2022-10-16T18:53:14;21.90;55.10
34776;DHT22;20989;52.566;13.346;2022-10-16T18:56:16;21.80;54.60
34776;DHT22;20989;52.566;13.346;2022-10-16T18:59:19;21.80;54.60
34776;DHT22;20989;52.566;13.346;2022-10-16T19:02:20;21.80;54.60
34776;DHT22;20989;52.566;13.346;2022-10-16T19:05:21;21.80;54.60
34776;DHT22;20989;52.566;13.346;2022-10-16T19:08:22;21.80;54.60
34776;DHT22;20989;52.566;13.346;2022-10-16T19:11:24;21.80;54.70
34776;DHT22;20989;52.566;13.346;2022-10-16T19:14:26;21.80;54.70
34776;DHT22;20989;52.566;13.346;2022-10-16T19:17:28;21.70;54.60
34776;DHT22;20989;52.566;13.346;2022-10-16T19:20:29;21.70;54.60
34776;DHT22;20989;52.566;13.346;2022-10-16T19:23:30;21.70;54.60
34776;DHT22;20989;52.566;13.346;2022-10-16T19:26:32;21.70;54.60
34776;DHT22;20989;52.566;13.346;2022-10-16T19:29:32;21.70;54.60
34776;DHT22;20989;52.566;13.346;2022-10-16T19:32:33;21.70;54.60
34776;DHT22;20989;52.566;13.346;2022-10-16T19:35:34;21.60;54.60
34776;DHT22;20989;52.566;13.346;2022-10-16T19:38:35;21.70;54.60
34776;DHT22;20989;52.566;13.346;2022-10-16T19:41:36;21.60;54.60
34776;DHT22;20989;52.566;13.346;2022-10-16T19:44:37;21.60;54.50
34776;DHT22;20989;52.566;13.346;2022-10-16T19:47:38;21.70;54.60
34776;DHT22;20989;52.566;13.346;2022-10-16T19:50:45;21.60;54.60
34776;DHT22;20989;52.566;13.346;2022-10-16T19:53:46;21.60;54.50
34776;DHT22;20989;52.566;13.346;2022-10-16T19:56:47;21.60;54.60
34776;DHT22;20989;52.566;13.346;2022-10-16T19:59:51;21.60;54.50
34776;DHT22;20989;52.566;13.346;2022-10-16T20:02:51;21.60;54.50
34776;DHT22;20989;52.566;13.346;2022-10-16T20:05:53;21.60;54.50
34776;DHT22;20989;52.566;13.346;2022-10-16T20:08:55;21.60;54.50
34776;DHT22;20989;52.566;13.346;2022-10-16T20:11:57;21.60;54.50
34776;DHT22;20989;52.566;13.346;2022-10-16T20:14:58;21.60;54.50
34776;DHT22;20989;52.566;13.346;2022-10-16T20:17:58;21.60;54.50
34776;DHT22;20989;52.566;13.346;2022-10-16T20:20:59;21.60;54.50
34776;DHT22;20989;52.566;13.346;2022-10-16T20:24:01;21.60;54.50
34776;DHT22;20989;52.566;13.346;2022-10-16T20:27:04;21.60;54.50